Terminal Aerodrome Forecast
Issued by NWS Sterling, VA

Home | Current Version | Previous Version | Text Only | Print | Product List | Glossary On
Versions: 1 2 3 4 5 6 7 8 9 10 11 12 13 14 15 16 17 18 19 20 21 22 23 24 25
000
FTUS41 KLWX 221144
TAFIAD
TAF
KIAD 221144Z 2212/2318 02008G16KT P6SM VCSH BKN025 OVC050
     FM221400 02007KT 5SM -RADZ BKN015 OVC025
     FM221700 02008KT 5SM -RADZ BKN008 OVC015
     FM230600 04005KT 2SM -RADZ BR BKN004 OVC008
     FM231100 09005KT 2SM -RADZ BR BKN004 OVC008
     FM231500 14005KT 5SM -RADZ BR BKN008 OVC015=

USA.gov is the U.S. government's official web portal to all federal, state and local government web resources and services.